createdAt,value
2022-12-03T00:00:10.457Z,25.08
2022-12-03T00:02:39.170Z,29.48
2022-12-03T00:05:06.172Z,30.05
2022-12-03T00:07:36.235Z,27.63
2022-12-03T00:10:04.020Z,26.05
2022-12-03T00:12:30.691Z,26.10
2022-12-03T00:14:57.550Z,27.85
2022-12-03T00:17:24.445Z,27.08
2022-12-03T00:19:51.099Z,26.70
2022-12-03T00:22:17.801Z,29.00
2022-12-03T00:24:44.511Z,27.60
2022-12-03T00:27:11.274Z,29.83
2022-12-03T00:29:37.960Z,30.42
2022-12-03T00:32:04.833Z,28.73
2022-12-03T00:34:31.575Z,28.27
2022-12-03T00:36:58.282Z,31.30
2022-12-03T00:39:25.036Z,29.85
2022-12-03T00:41:51.709Z,28.95
2022-12-03T00:44:18.384Z,31.67
2022-12-03T00:46:45.086Z,29.13
2022-12-03T00:49:11.780Z,26.75
2022-12-03T00:51:38.483Z,31.88
2022-12-03T00:54:05.199Z,29.08
2022-12-03T00:56:31.922Z,30.05
2022-12-03T00:58:58.724Z,32.15
2022-12-03T01:01:25.528Z,29.33
2022-12-03T01:03:52.263Z,31.35
2022-12-03T01:06:18.981Z,31.27
2022-12-03T01:08:45.683Z,28.13
2022-12-03T01:11:30.919Z,28.23
2022-12-03T01:13:58.263Z,31.58
2022-12-03T01:16:24.995Z,32.50
2022-12-03T01:18:52.827Z,29.42
2022-12-03T01:21:20.299Z,29.23
2022-12-03T01:23:47.155Z,29.23
2022-12-03T01:26:13.946Z,34.25
2022-12-03T01:28:42.087Z,29.00
2022-12-03T01:31:28.337Z,29.65
2022-12-03T01:33:55.094Z,31.80
2022-12-03T01:36:21.749Z,29.10
2022-12-03T01:38:51.309Z,31.52
2022-12-03T01:41:19.332Z,31.47
2022-12-03T01:43:47.089Z,32.33
2022-12-03T01:46:21.696Z,32.70
2022-12-03T01:48:50.658Z,29.17
2022-12-03T01:51:17.606Z,29.65
2022-12-03T01:53:44.784Z,28.55
2022-12-03T01:56:15.799Z,30.27
2022-12-03T01:58:44.100Z,32.58
2022-12-03T02:01:14.409Z,31.52
2022-12-03T02:06:22.814Z,30.08
2022-12-03T02:08:49.979Z,31.67
2022-12-03T02:11:29.841Z,30.63
2022-12-03T02:14:02.503Z,30.23
2022-12-03T02:16:30.175Z,32.55
2022-12-03T02:18:58.045Z,36.08
2022-12-03T02:21:45.786Z,30.42
2022-12-03T02:24:27.253Z,31.52
2022-12-03T02:26:53.941Z,33.97
2022-12-03T02:29:20.652Z,32.42
2022-12-03T02:31:47.453Z,31.00
2022-12-03T02:34:43.573Z,32.92
2022-12-03T02:37:38.644Z,32.40
2022-12-03T02:40:10.266Z,29.77
2022-12-03T02:42:37.092Z,33.13
2022-12-03T02:45:08.993Z,30.10
2022-12-03T02:47:47.309Z,31.88
2022-12-03T02:50:17.517Z,28.98
2022-12-03T02:52:46.106Z,33.33
2022-12-03T02:55:16.662Z,30.23
2022-12-03T02:57:47.293Z,32.72
2022-12-03T03:00:15.211Z,34.97
2022-12-03T03:02:42.371Z,33.15
2022-12-03T03:05:11.938Z,32.75
2022-12-03T03:07:39.766Z,32.73
2022-12-03T03:10:08.885Z,32.67
2022-12-03T03:12:39.229Z,29.05
2022-12-03T03:15:08.128Z,31.20
2022-12-03T03:17:35.234Z,29.10
2022-12-03T03:20:03.761Z,32.15
2022-12-03T03:22:34.964Z,34.15
2022-12-03T03:25:02.050Z,33.40
2022-12-03T03:27:29.598Z,31.85
2022-12-03T03:29:58.857Z,34.45
2022-12-03T03:32:26.737Z,31.20
2022-12-03T03:34:54.004Z,30.92
2022-12-03T03:37:21.267Z,31.35
2022-12-03T03:39:48.101Z,32.13
2022-12-03T03:42:15.094Z,30.42
2022-12-03T03:44:41.911Z,31.40
2022-12-03T03:47:08.902Z,34.15
2022-12-03T03:49:36.011Z,33.78
2022-12-03T03:52:03.748Z,33.20
2022-12-03T03:54:30.645Z,33.13
2022-12-03T03:56:57.535Z,32.67
2022-12-03T03:59:24.392Z,35.22
2022-12-03T04:01:51.751Z,31.30
2022-12-03T04:04:23.871Z,34.70
2022-12-03T04:06:50.576Z,33.08
2022-12-03T04:09:17.277Z,30.65
2022-12-03T04:12:02.901Z,30.45
2022-12-03T04:14:29.598Z,31.85
2022-12-03T04:16:56.283Z,36.42
2022-12-03T04:19:23.042Z,34.78
2022-12-03T04:22:08.527Z,34.95
2022-12-03T04:24:35.289Z,37.63
2022-12-03T04:27:20.548Z,38.70
2022-12-03T04:29:47.272Z,35.90
2022-12-03T04:32:32.974Z,32.35
2022-12-03T04:35:18.404Z,33.53
2022-12-03T04:37:45.121Z,44.20
2022-12-03T04:40:30.360Z,32.35
2022-12-03T04:42:57.105Z,33.75
2022-12-03T04:45:23.924Z,33.58
2022-12-03T04:47:50.635Z,32.83
2022-12-03T04:50:17.309Z,34.33
2022-12-03T04:52:44.046Z,36.15
2022-12-03T04:55:10.728Z,37.08
2022-12-03T04:57:37.494Z,34.00
2022-12-03T05:00:05.470Z,29.25
2022-12-03T05:02:32.238Z,37.90
2022-12-03T05:04:59.081Z,32.33
2022-12-03T05:07:25.860Z,32.83
2022-12-03T05:09:52.567Z,31.20
2022-12-03T05:12:19.276Z,29.85
2022-12-03T05:14:45.960Z,31.40
2022-12-03T05:17:12.712Z,32.05
2022-12-03T05:19:58.307Z,30.58
2022-12-03T05:22:25.017Z,33.38
2022-12-03T05:24:52.006Z,32.70
2022-12-03T05:27:23.382Z,31.88
2022-12-03T05:29:50.347Z,35.78
2022-12-03T05:32:17.085Z,33.10
2022-12-03T05:34:43.763Z,28.70
2022-12-03T05:37:11.089Z,37.80
2022-12-03T05:39:38.008Z,33.30
2022-12-03T05:42:23.569Z,32.08
2022-12-03T05:44:50.246Z,32.78
2022-12-03T05:47:16.943Z,32.67
2022-12-03T05:49:43.583Z,32.50
2022-12-03T05:52:10.343Z,32.38
2022-12-03T05:54:37.036Z,32.20
2022-12-03T05:57:03.978Z,32.50
2022-12-03T05:59:30.703Z,37.45
2022-12-03T06:01:57.480Z,35.20
2022-12-03T06:04:24.138Z,34.25
2022-12-03T06:06:50.808Z,33.78
2022-12-03T06:09:17.543Z,36.50
2022-12-03T06:11:44.245Z,33.95
2022-12-03T06:14:10.898Z,33.70
2022-12-03T06:16:37.634Z,32.97
2022-12-03T06:19:04.344Z,31.45
2022-12-03T06:21:31.024Z,33.05
2022-12-03T06:23:57.735Z,33.45
2022-12-03T06:26:24.456Z,32.72
2022-12-03T06:28:51.141Z,33.13
2022-12-03T06:31:17.914Z,33.05
2022-12-03T06:33:59.749Z,30.73
2022-12-03T06:36:27.724Z,31.02
2022-12-03T06:38:54.902Z,31.33
2022-12-03T06:41:21.566Z,30.55
2022-12-03T06:43:48.251Z,29.63
2022-12-03T06:46:14.924Z,31.55
2022-12-03T06:48:41.676Z,31.58
2022-12-03T06:51:08.334Z,27.95
2022-12-03T06:53:35.041Z,29.38
2022-12-03T06:56:01.736Z,30.58
2022-12-03T06:58:28.416Z,33.97
2022-12-03T07:00:55.053Z,31.40
2022-12-03T07:03:21.808Z,31.75
2022-12-03T07:05:48.517Z,28.20
2022-12-03T07:08:15.288Z,31.23
2022-12-03T07:10:43.388Z,31.58
2022-12-03T07:13:10.170Z,31.40
2022-12-03T07:15:37.195Z,35.72
2022-12-03T07:18:04.004Z,32.30
2022-12-03T07:20:30.796Z,32.17
2022-12-03T07:22:57.593Z,35.85
2022-12-03T07:25:24.267Z,28.50
2022-12-03T07:27:50.955Z,31.02
2022-12-03T07:30:17.961Z,31.95
2022-12-03T07:32:44.674Z,33.88
2022-12-03T07:35:11.640Z,33.65
2022-12-03T07:37:38.335Z,32.90
2022-12-03T07:40:06.256Z,35.58
2022-12-03T07:42:32.974Z,30.40
2022-12-03T07:44:59.687Z,32.75
2022-12-03T07:47:26.377Z,35.65
2022-12-03T07:49:53.085Z,33.72
2022-12-03T07:52:19.740Z,31.00
2022-12-03T07:54:46.444Z,34.85
2022-12-03T07:57:13.194Z,32.15
2022-12-03T07:59:39.925Z,32.88
2022-12-03T08:02:06.724Z,37.05
2022-12-03T08:04:33.502Z,32.42
2022-12-03T08:07:00.169Z,37.88
2022-12-03T08:09:26.902Z,36.70
2022-12-03T08:11:53.949Z,35.97
2022-12-03T08:14:20.909Z,35.65
2022-12-03T08:16:48.891Z,38.30
2022-12-03T08:19:17.525Z,39.55
2022-12-03T08:21:44.678Z,36.92
2022-12-03T08:24:15.691Z,35.83
2022-12-03T08:26:44.337Z,38.55
2022-12-03T08:29:12.809Z,41.10
2022-12-03T08:31:40.561Z,36.33
2022-12-03T08:34:13.412Z,43.22
2022-12-03T08:36:40.171Z,39.38
2022-12-03T08:39:27.385Z,38.88
2022-12-03T08:42:15.098Z,41.03
2022-12-03T08:44:41.751Z,43.00
2022-12-03T08:47:19.565Z,42.05
2022-12-03T08:49:58.541Z,40.63
2022-12-03T08:52:32.062Z,42.35
2022-12-03T08:55:00.077Z,41.42
2022-12-03T08:57:32.342Z,42.35
2022-12-03T09:00:20.620Z,36.03
2022-12-03T09:03:00.950Z,39.92
2022-12-03T09:05:30.792Z,40.92
2022-12-03T09:07:57.631Z,37.72
2022-12-03T09:10:24.410Z,37.78
2022-12-03T09:12:51.178Z,40.25
2022-12-03T09:15:17.942Z,38.95
2022-12-03T09:17:44.632Z,35.38
2022-12-03T09:20:11.842Z,40.88
2022-12-03T09:22:38.526Z,44.13
2022-12-03T09:25:05.733Z,40.35
2022-12-03T09:27:32.425Z,39.60
2022-12-03T09:29:59.237Z,45.30
2022-12-03T09:32:26.063Z,36.15
2022-12-03T09:34:53.745Z,47.65
2022-12-03T09:37:22.131Z,46.88
2022-12-03T09:39:49.016Z,47.95
2022-12-03T09:42:15.881Z,44.75
2022-12-03T09:44:42.858Z,43.75
2022-12-03T09:47:09.777Z,44.45
2022-12-03T09:49:38.351Z,43.92
2022-12-03T09:52:06.396Z,40.95
2022-12-03T09:54:33.861Z,42.70
2022-12-03T09:57:04.120Z,41.45
2022-12-03T09:59:33.213Z,42.55
2022-12-03T10:02:00.649Z,48.92
2022-12-03T10:04:29.002Z,41.95
2022-12-03T10:06:58.801Z,41.58
2022-12-03T10:09:28.009Z,47.13
2022-12-03T10:11:57.201Z,39.40
2022-12-03T10:14:24.504Z,43.22
2022-12-03T10:16:51.426Z,41.97
2022-12-03T10:19:27.503Z,40.97
2022-12-03T10:21:55.616Z,38.47
2022-12-03T10:24:22.322Z,37.45
2022-12-03T10:26:52.329Z,44.78
2022-12-03T10:29:33.201Z,42.25
2022-12-03T10:32:06.373Z,45.30
2022-12-03T10:34:37.072Z,47.53
2022-12-03T10:37:10.006Z,48.00
2022-12-03T10:39:56.267Z,49.30
2022-12-03T10:42:25.074Z,48.30
2022-12-03T10:45:23.279Z,40.22
2022-12-03T10:48:20.679Z,40.05
2022-12-03T10:50:48.457Z,45.03
2022-12-03T10:53:15.848Z,45.95
2022-12-03T10:55:44.936Z,43.78
2022-12-03T10:58:23.633Z,42.33
2022-12-03T11:00:52.495Z,44.22
2022-12-03T11:03:24.707Z,49.20
2022-12-03T11:05:52.511Z,48.88
2022-12-03T11:08:22.774Z,46.58
2022-12-03T11:11:04.679Z,49.33
2022-12-03T11:13:34.310Z,54.35
2022-12-03T11:16:03.090Z,46.00
2022-12-03T11:18:39.044Z,52.90
2022-12-03T11:21:08.700Z,47.22
2022-12-03T11:24:02.618Z,47.35
2022-12-03T11:26:29.309Z,47.72
2022-12-03T11:28:57.854Z,47.65
2022-12-03T11:31:44.978Z,47.42
2022-12-03T11:34:20.765Z,47.67
2022-12-03T11:37:12.210Z,42.03
2022-12-03T11:39:45.213Z,52.13
2022-12-03T11:42:26.859Z,52.92
2022-12-03T11:45:05.537Z,53.50
2022-12-03T11:47:41.938Z,51.08
2022-12-03T11:50:22.325Z,43.70
2022-12-03T11:55:28.650Z,44.10
2022-12-03T11:58:00.841Z,40.92
2022-12-03T12:00:28.125Z,38.45
2022-12-03T12:02:57.896Z,36.10
2022-12-03T12:05:33.376Z,37.28
2022-12-03T12:08:02.749Z,43.25
2022-12-03T12:10:49.330Z,37.40
2022-12-03T12:13:31.116Z,35.75
2022-12-03T12:16:04.149Z,29.70
2022-12-03T12:18:55.800Z,32.15
2022-12-03T12:21:48.895Z,31.25
2022-12-03T12:24:46.393Z,34.20
2022-12-03T12:27:18.554Z,30.58
2022-12-03T12:29:50.516Z,31.42
2022-12-03T12:32:19.640Z,35.20
2022-12-03T12:34:48.995Z,29.08
2022-12-03T12:37:36.705Z,27.45
2022-12-03T12:40:15.727Z,28.60
2022-12-03T12:43:09.989Z,29.95
2022-12-03T12:45:41.847Z,24.35
2022-12-03T12:48:28.005Z,29.30
2022-12-03T12:51:07.765Z,27.50
2022-12-03T12:53:36.423Z,26.33
2022-12-03T12:56:23.344Z,28.30
2022-12-03T12:58:50.350Z,28.98
2022-12-03T13:01:29.166Z,28.42
2022-12-03T13:03:56.871Z,32.13
2022-12-03T13:06:30.648Z,34.80
2022-12-03T13:08:58.725Z,29.35
2022-12-03T13:11:25.406Z,24.30
2022-12-03T13:13:52.487Z,31.92
2022-12-03T13:16:32.678Z,33.72
2022-12-03T13:19:01.088Z,31.20
2022-12-03T13:21:42.455Z,31.52
2022-12-03T13:24:31.489Z,31.00
2022-12-03T13:27:02.318Z,29.58
2022-12-03T13:29:29.105Z,32.17
2022-12-03T13:31:58.629Z,28.70
2022-12-03T13:34:31.095Z,29.67
2022-12-03T13:36:59.619Z,28.88
2022-12-03T13:39:32.625Z,27.30
2022-12-03T13:42:39.123Z,32.90
2022-12-03T13:45:14.990Z,29.90
2022-12-03T13:47:44.186Z,32.20
2022-12-03T13:50:34.819Z,31.70
2022-12-03T13:53:14.844Z,32.63
2022-12-03T13:55:47.334Z,28.60
2022-12-03T13:58:13.998Z,28.90
2022-12-03T14:00:40.754Z,30.80
2022-12-03T14:03:07.503Z,33.95
2022-12-03T14:05:34.152Z,37.45
2022-12-03T14:08:04.813Z,35.40
2022-12-03T14:10:31.635Z,33.70
2022-12-03T14:12:58.656Z,30.38
2022-12-03T14:15:26.409Z,29.92
2022-12-03T14:17:53.428Z,35.78
2022-12-03T14:20:20.352Z,30.63
2022-12-03T14:22:47.066Z,32.60
2022-12-03T14:25:13.783Z,43.30
2022-12-03T14:27:40.450Z,53.45
2022-12-03T14:30:07.971Z,45.15
2022-12-03T14:32:34.757Z,46.58
2022-12-03T14:35:06.591Z,46.13
2022-12-03T14:37:36.355Z,50.30
2022-12-03T14:40:03.854Z,50.67
2022-12-03T14:42:30.582Z,51.90
2022-12-03T14:44:57.558Z,52.72
2022-12-03T14:47:24.250Z,50.03
2022-12-03T14:49:52.616Z,46.63
2022-12-03T14:52:19.965Z,43.83
2022-12-03T14:54:46.709Z,52.70
2022-12-03T14:57:15.452Z,44.35
2022-12-03T14:59:43.362Z,48.22
2022-12-03T15:02:11.136Z,42.90
2022-12-03T15:04:38.674Z,43.42
2022-12-03T15:07:05.480Z,45.90
2022-12-03T15:09:32.275Z,38.05
2022-12-03T15:11:59.979Z,40.17
2022-12-03T15:14:26.996Z,36.85
2022-12-03T15:16:53.825Z,39.53
2022-12-03T15:19:21.177Z,42.78
2022-12-03T15:21:47.881Z,44.90
2022-12-03T15:24:14.593Z,36.38
2022-12-03T15:26:41.269Z,38.65
2022-12-03T15:29:07.904Z,35.38
2022-12-03T15:31:34.897Z,34.25
2022-12-03T15:34:01.811Z,39.13
2022-12-03T15:36:28.579Z,35.65
2022-12-03T15:38:55.355Z,31.13
2022-12-03T15:41:24.308Z,36.88
2022-12-03T15:43:55.259Z,34.65
2022-12-03T15:46:22.217Z,33.15
2022-12-03T15:48:49.284Z,34.65
2022-12-03T15:51:16.090Z,32.78
2022-12-03T15:53:42.882Z,34.17
2022-12-03T15:56:11.784Z,30.27
2022-12-03T15:58:39.397Z,33.60
2022-12-03T16:01:06.735Z,29.13
2022-12-03T16:03:33.537Z,29.60
2022-12-03T16:06:00.295Z,36.47
2022-12-03T16:08:27.084Z,34.35
2022-12-03T16:10:53.984Z,29.63
2022-12-03T16:13:20.659Z,32.92
2022-12-03T16:15:47.425Z,34.38
2022-12-03T16:18:17.528Z,37.05
2022-12-03T16:20:44.279Z,36.90
2022-12-03T16:23:10.974Z,40.45
2022-12-03T16:25:37.733Z,45.00
2022-12-03T16:28:04.432Z,41.33
2022-12-03T16:30:31.168Z,48.55
2022-12-03T16:32:57.959Z,42.90
2022-12-03T16:35:24.881Z,41.80
2022-12-03T16:37:51.601Z,47.55
2022-12-03T16:40:18.406Z,44.40
2022-12-03T16:42:45.142Z,53.17
2022-12-03T16:45:23.083Z,45.42
2022-12-03T16:47:50.214Z,46.67
2022-12-03T16:50:24.422Z,51.50
2022-12-03T16:52:55.838Z,47.60
2022-12-03T16:55:22.672Z,47.90
2022-12-03T16:57:49.460Z,50.58
2022-12-03T17:00:16.949Z,48.22
2022-12-03T17:02:43.683Z,45.35
2022-12-03T17:05:10.419Z,50.72
2022-12-03T17:07:37.324Z,47.58
2022-12-03T17:10:04.734Z,56.00
2022-12-03T17:12:54.183Z,55.05
2022-12-03T17:15:18.154Z,54.25
2022-12-03T17:17:45.991Z,49.92
2022-12-03T17:20:14.620Z,56.50
2022-12-03T17:22:41.714Z,57.20
2022-12-03T17:25:09.144Z,50.05
2022-12-03T17:27:39.664Z,51.10
2022-12-03T17:30:11.034Z,52.25
2022-12-03T17:32:37.802Z,41.85
2022-12-03T17:35:04.880Z,50.70
2022-12-03T17:37:31.553Z,48.95
2022-12-03T17:39:58.254Z,52.13
2022-12-03T17:42:24.943Z,56.65
2022-12-03T17:44:51.715Z,55.80
2022-12-03T17:47:18.433Z,49.65
2022-12-03T17:49:45.084Z,57.50
2022-12-03T17:52:11.871Z,55.22
2022-12-03T17:55:08.602Z,53.70
2022-12-03T17:57:25.513Z,50.67
2022-12-03T17:59:52.590Z,50.72
2022-12-03T18:02:19.562Z,52.22
2022-12-03T18:04:46.366Z,52.10
2022-12-03T18:07:13.053Z,55.63
2022-12-03T18:09:39.702Z,59.92
2022-12-03T18:12:06.773Z,58.00
2022-12-03T18:14:33.511Z,56.42
2022-12-03T18:17:00.224Z,47.42
2022-12-03T18:19:26.938Z,53.97
2022-12-03T18:21:54.429Z,55.33
2022-12-03T18:24:21.877Z,59.70
2022-12-03T18:26:48.582Z,53.30
2022-12-03T18:29:15.260Z,55.95
2022-12-03T18:31:42.059Z,61.80
2022-12-03T18:34:08.849Z,54.70
2022-12-03T18:36:36.634Z,52.72
2022-12-03T18:39:05.973Z,52.67
2022-12-03T18:41:33.726Z,60.40
2022-12-03T18:44:03.334Z,52.03
2022-12-03T18:46:51.659Z,48.42
2022-12-03T18:49:17.735Z,50.83
2022-12-03T18:51:44.442Z,49.45
2022-12-03T18:54:13.344Z,49.90
2022-12-03T18:56:41.196Z,45.50
2022-12-03T18:59:08.090Z,49.38
2022-12-03T19:01:35.448Z,50.20
2022-12-03T19:04:02.611Z,49.47
2022-12-03T19:06:30.517Z,50.30
2022-12-03T19:08:57.604Z,50.35
2022-12-03T19:11:24.375Z,51.33
2022-12-03T19:13:51.808Z,50.30
2022-12-03T19:16:19.094Z,44.88
2022-12-03T19:18:45.975Z,46.90
2022-12-03T19:21:15.069Z,46.53
2022-12-03T19:23:47.312Z,51.22
2022-12-03T19:26:25.777Z,45.38
2022-12-03T19:28:53.825Z,44.78
2022-12-03T19:31:20.961Z,42.20
2022-12-03T19:33:48.290Z,41.97
2022-12-03T19:36:26.348Z,46.45
2022-12-03T19:38:57.376Z,43.83
2022-12-03T19:41:27.249Z,46.58
2022-12-03T19:43:55.389Z,45.35
2022-12-03T19:46:24.372Z,46.15
2022-12-03T19:48:51.502Z,44.10
2022-12-03T19:51:34.226Z,48.45
2022-12-03T19:54:02.838Z,53.03
2022-12-03T19:56:30.404Z,44.50
2022-12-03T19:58:57.930Z,48.85
2022-12-03T20:01:27.816Z,47.28
2022-12-03T20:03:57.408Z,49.85
2022-12-03T20:06:26.599Z,43.67
2022-12-03T20:09:01.698Z,50.25
2022-12-03T20:11:31.205Z,46.17
2022-12-03T20:14:00.182Z,51.40
2022-12-03T20:16:28.493Z,51.00
2022-12-03T20:19:04.160Z,51.22
2022-12-03T20:21:33.270Z,43.35
2022-12-03T20:24:00.661Z,46.83
2022-12-03T20:26:27.841Z,45.42
2022-12-03T20:28:55.957Z,45.53
2022-12-03T20:31:25.505Z,47.20
2022-12-03T20:33:56.270Z,44.45
2022-12-03T20:36:23.622Z,44.50
2022-12-03T20:39:01.501Z,46.03
2022-12-03T20:41:28.775Z,48.88
2022-12-03T20:43:55.907Z,51.85
2022-12-03T20:46:24.089Z,44.30
2022-12-03T20:48:51.619Z,51.20
2022-12-03T20:51:20.451Z,47.05
2022-12-03T20:53:47.811Z,44.38
2022-12-03T20:56:23.393Z,55.22
2022-12-03T20:58:50.836Z,47.13
2022-12-03T21:01:23.883Z,41.75
2022-12-03T21:03:51.884Z,43.50
2022-12-03T21:06:19.557Z,43.85
2022-12-03T21:08:46.804Z,47.30
2022-12-03T21:11:16.370Z,51.60
2022-12-03T21:13:44.177Z,53.23
2022-12-03T21:16:26.121Z,44.85
2022-12-03T21:19:07.164Z,47.40
2022-12-03T21:21:35.116Z,44.08
2022-12-03T21:24:01.907Z,51.78
2022-12-03T21:26:28.858Z,47.65
2022-12-03T21:28:55.757Z,43.92
2022-12-03T21:31:26.107Z,47.67
2022-12-03T21:36:20.899Z,45.42
2022-12-03T21:38:48.209Z,47.90
2022-12-03T21:41:15.020Z,42.50
2022-12-03T21:43:42.666Z,45.63
2022-12-03T21:47:11.641Z,48.40
2022-12-03T21:48:59.936Z,47.33
2022-12-03T21:51:26.693Z,48.25
2022-12-03T21:53:53.633Z,45.58
2022-12-03T21:56:20.496Z,47.00
2022-12-03T21:58:47.662Z,46.83
2022-12-03T22:01:24.471Z,46.17
2022-12-03T22:03:51.626Z,43.30
2022-12-03T22:06:18.803Z,43.05
2022-12-03T22:08:45.931Z,45.97
2022-12-03T22:11:21.330Z,49.58
2022-12-03T22:13:48.727Z,46.25
2022-12-03T22:16:19.413Z,42.28
2022-12-03T22:18:46.675Z,45.75
2022-12-03T22:21:16.130Z,49.83
2022-12-03T22:23:42.938Z,45.90
2022-12-03T22:26:13.207Z,46.97
2022-12-03T22:28:44.033Z,48.83
2022-12-03T22:31:11.329Z,47.70
2022-12-03T22:33:38.740Z,46.83
2022-12-03T22:36:08.338Z,46.05
2022-12-03T22:38:35.360Z,48.63
2022-12-03T22:41:06.268Z,51.85
2022-12-03T22:43:33.379Z,48.08
2022-12-03T22:46:00.165Z,47.40
2022-12-03T22:48:26.886Z,49.35
2022-12-03T22:50:53.599Z,53.38
2022-12-03T22:53:20.537Z,49.25
2022-12-03T22:56:00.459Z,52.47
2022-12-03T22:58:28.496Z,49.22
2022-12-03T23:01:02.377Z,49.17
2022-12-03T23:03:29.735Z,58.85
2022-12-03T23:05:56.716Z,60.10
2022-12-03T23:08:23.568Z,49.13
2022-12-03T23:10:52.306Z,50.33
2022-12-03T23:13:20.237Z,49.65
2022-12-03T23:15:49.028Z,50.55
2022-12-03T23:18:16.470Z,46.35
2022-12-03T23:20:48.005Z,56.22
2022-12-03T23:23:15.277Z,49.35
2022-12-03T23:25:42.093Z,52.80
2022-12-03T23:28:09.827Z,50.13
2022-12-03T23:30:37.569Z,53.35
2022-12-03T23:33:05.941Z,54.03
2022-12-03T23:35:32.996Z,49.78
2022-12-03T23:37:59.750Z,49.20
2022-12-03T23:40:26.510Z,51.50
2022-12-03T23:42:53.248Z,50.95
2022-12-03T23:45:20.056Z,54.47
2022-12-03T23:47:46.793Z,57.65
2022-12-03T23:50:13.483Z,52.92
2022-12-03T23:52:40.207Z,49.30
2022-12-03T23:55:07.099Z,48.22
2022-12-03T23:57:34.586Z,52.17
